Flight Track Log - Related Links

Times and Time Zones

All times are in EDT time to prevent confusion due to time zone crossing. See the RPA4937 flight status page for this flight to view local times or setup timezone preferences in your user account.

Time Position Orientation Groundspeed Altitude Reporting Facility
EDT Latitude Longitude Course Direction KTS MPH feet Rate Location/Type
Thu 09:59:04 AM 40.7167 -74.1500 74° East 172 198 1,300  Level New York TRACON
Thu 09:59:58 AM 40.7500 -74.1167 37° Northeast 216 249 3,100 2,158 Climbing New York TRACON
Thu 10:00:58 AM 40.8167 -74.1500 339° North 231 266 5,400 1,450 Climbing New York TRACON
Thu 10:01:58 AM 40.8833 -74.1833 339° North 266 306 6,000 286 Climbing New York TRACON
Thu 10:02:00 AM 41.0463 -74.1378 North  Level FlightAware Approximate
Thu 10:03:00 AM 41.1376 -74.1333 North  Level FlightAware Approximate
Thu 10:03:04 AM 40.9667 -74.1833 360° North 259 298 6,000  Level New York TRACON
Thu 10:04:00 AM 41.1724 -74.0327 74° East  Level FlightAware Approximate
Thu 10:04:04 AM 41.0167 -74.1667 14° North 255 293 6,000  Level New York TRACON
Thu 10:05:05 AM 41.1000 -74.1500 North 256 295 6,000 992 Level New York TRACON
Thu 10:06:05 AM 41.1333 -74.0833 56° Northeast 223 257 8,000 2,000 Climbing New York TRACON
Thu 10:07:05 AM 41.1500 -74.0000 75° East 233 268 10,000 1,800 Climbing New York TRACON
Thu 10:08:05 AM 41.1833 -73.9167 62° Northeast 256 295 11,600 1,607 Climbing New York TRACON
Thu 10:10:08 AM 41.2322 -73.7372 70° East 278 320 14,900 1,443 Climbing Boston Center
Thu 10:11:08 AM 41.2625 -73.6386 68° East 263 303 16,000 1,000 Climbing Boston Center
Thu 10:12:08 AM 41.2967 -73.5592 60° Northeast 274 315 16,900 1,000 Climbing Boston Center
Thu 10:13:08 AM 41.3556 -73.4825 44° Northeast 268 308 18,000 1,000 Climbing Boston Center
Thu 10:14:08 AM 41.3978 -73.4253 45° Northeast 261 300 18,900 1,050 Climbing Boston Center
Thu 10:15:08 AM 41.4669 -73.3792 27° Northeast 245 282 20,100 1,200 Climbing Boston Center
Thu 10:16:08 AM 41.5442 -73.3858 356° North 240 276 21,300 1,150 Climbing Boston Center
Thu 10:17:08 AM 41.6192 -73.3842 North 240 276 22,400 1,000 Climbing Boston Center
Thu 10:18:08 AM 41.6878 -73.3825 North 246 283 23,300 900 Climbing Boston Center
Thu 10:19:08 AM 41.7586 -73.3808 North 252 290 24,200 800 Climbing Boston Center
Thu 10:20:08 AM 41.8297 -73.3789 North 252 290 24,900 400 Climbing Boston Center
Thu 10:21:08 AM 41.9025 -73.3772 North 252 290 25,000 50 Climbing Boston Center
Thu 10:22:08 AM 41.9819 -73.3617 North 264 304 25,000  Level Boston Center
Thu 10:23:08 AM 42.0572 -73.3153 25° Northeast 275 316 25,000  Level Boston Center
Thu 10:24:08 AM 42.1244 -73.2519 35° Northeast 286 329 25,000  Level Boston Center
Thu 10:25:08 AM 42.1814 -73.1628 49° Northeast 296 341 25,000  Level Boston Center
Thu 10:26:08 AM 42.2381 -73.0739 49° Northeast 302 348 25,000  Level Boston Center
Thu 10:27:08 AM 42.2950 -72.9847 49° Northeast 308 354 25,000  Level Boston Center
Thu 10:28:08 AM 42.3536 -72.8981 48° Northeast 325 374 25,000  Level Boston Center
Thu 10:29:08 AM 42.4103 -72.8028 51° Northeast 331 381 25,000  Level Boston Center
Thu 10:30:08 AM 42.4689 -72.7158 48° Northeast 324 373 25,000  Level Boston Center
Thu 10:31:08 AM 42.5275 -72.6261 48° Northeast 324 373 25,000  Level Boston Center
Thu 10:32:08 AM 42.5839 -72.5331 51° Northeast 318 366 25,000  Level Boston Center
Thu 10:33:08 AM 42.6547 -72.4428 43° Northeast 313 360 25,000  Level Boston Center
Thu 10:34:08 AM 42.7108 -72.3525 50° Northeast 313 360 25,000  Level Boston Center
Thu 10:35:08 AM 42.7608 -72.2703 50° Northeast 313 360 25,000  Level Boston Center
Thu 10:36:08 AM 42.8169 -72.1825 49° Northeast 308 354 25,000  Level Boston Center
Thu 10:37:08 AM 42.8750 -72.0889 50° Northeast 308 354 25,000  Level Boston Center
Thu 10:38:08 AM 42.9186 -72.0206 49° Northeast 308 354 25,000 -250 Level Boston Center
Thu 10:39:08 AM 42.9767 -71.9264 50° Northeast 308 354 24,500 -500 Descending Boston Center
Thu 10:40:08 AM 43.0447 -71.8208 49° Northeast 308 354 24,000 -900 Descending Boston Center
Thu 10:41:08 AM 43.1006 -71.7292 50° Northeast 308 354 22,700 -1,600 Descending Boston Center
Thu 10:42:08 AM 43.1561 -71.6403 49° Northeast 308 354 20,800 -5,850 Descending Boston Center
Thu 10:43:08 AM 43.2181 -71.5428 49° Northeast 308 354 11,000 -1,700 Descending Boston Center
Thu 10:44:08 AM 43.2694 -71.4592 50° Northeast 308 354 17,400 2,100 Climbing Boston Center
Thu 10:45:08 AM 43.3331 -71.3583 49° Northeast 308 354 15,200 -2,000 Descending Boston Center
Thu 10:46:08 AM 43.3864 -71.2717 50° Northeast 303 349 13,400 -1,700 Descending Boston Center
Thu 10:47:08 AM 43.4356 -71.1906 50° Northeast 303 349 11,800 -1,150 Descending Boston Center
Thu 10:48:08 AM 43.4928 -71.0978 50° Northeast 303 349 11,100 -500 Descending Boston Center
Thu 10:49:08 AM 43.5400 -71.0253 48° Northeast 287 330 10,800 -950 Descending Boston Center
Thu 10:50:08 AM 43.5825 -70.9325 58° Northeast 275 316 9,200 -1,500 Descending Boston Center
Thu 10:51:08 AM 43.5939 -70.8433 80° East 257 296 7,800 -1,450 Descending Boston Center
Thu 10:52:08 AM 43.6111 -70.7483 76° East 250 288 6,300 -1,600 Descending Boston Center
Thu 10:53:08 AM 43.6286 -70.6531 76° East 239 275 4,600 -1,400 Descending Boston Center
Thu 10:54:08 AM 43.6397 -70.5753 79° East 239 275 3,500 -1,250 Descending Boston Center
Thu 10:55:08 AM 43.6489 -70.4919 81° East 209 241 2,100 -1,400 Descending Boston Center

Login

Don't have an account? Register now (free) for customized features, flight alerts, and more!